Terminal Aerodrome Forecast
Issued by NWS

Home | Current Version | Previous Version | Text Only | Print | Product List | Glossary On
Versions: 1 2 3 4 5 6 7 8 9 10 11 12 13 14 15 16 17 18 19 20 21 22
000
FTUS44 KOHX 252000 AAB
TAFCKV
TAF AMD
KCKV 252058Z 2521/2618 23012G18KT P6SM BKN025 BKN100
      TEMPO 2521/2524 -SHRA OVC015
     FM260000 26009KT 4SM -SHRA BR BKN015
     FM260300 32013KT 4SM -SHRA BR OVC008
      TEMPO 2607/2610 -RASN
     FM261000 33014KT P6SM OVC009 PROB30 2610/2613 -SN
     FM261300 32010KT P6SM OVC025=

USA.gov is the U.S. government's official web portal to all federal, state and local government web resources and services.